Time;durP1;ratioP1;P1;durP2;ratioP2;P2;SDS_P1;SDS_P2;PMS_P1;PMS_P2;Temp;Humidity;BMP_temperature;BMP_pressure;BME280_temperature;BME280_humidity;BME280_pressure;Samples;Min_cycle;Max_cycle;Signal;HPM_P1;HPM_P2
2022/04/07 00:01:08;;;;;;;12.57;3.33;;;9.40;99.90;;;;;;5064923;28;20045;-71
2022/04/07 00:03:34;;;;;;;20.20;3.28;;;9.30;99.90;;;;;;5064623;28;20106;-71
2022/04/07 00:06:01;;;;;;;20.02;3.10;;;9.20;99.90;;;;;;5064537;28;20055;-71
2022/04/07 00:08:27;;;;;;;12.95;3.25;;;9.20;99.90;;;;;;5063359;28;20432;-71
2022/04/07 00:10:56;;;;;;;10.43;2.67;;;9.20;99.90;;;;;;5058118;28;20052;-71
2022/04/07 00:13:22;;;;;;;13.20;2.75;;;9.30;99.90;;;;;;5067871;28;20131;-71
2022/04/07 00:15:47;;;;;;;12.45;2.53;;;9.10;99.90;;;;;;5051456;28;20131;-71
2022/04/07 00:18:13;;;;;;;14.73;2.50;;;9.10;99.90;;;;;;5051794;28;20139;-72
2022/04/07 00:20:39;;;;;;;14.35;2.60;;;9.10;99.90;;;;;;5057256;28;20577;-71
2022/04/07 00:23:05;;;;;;;13.73;2.13;;;9.50;99.90;;;;;;5054822;28;20038;-71
2022/04/07 00:25:31;;;;;;;15.20;2.00;;;9.10;99.90;;;;;;5065468;28;20123;-71
2022/04/07 00:27:56;;;;;;;14.07;2.40;;;9.10;99.90;;;;;;5067850;28;20382;-71
2022/04/07 00:30:23;;;;;;;13.13;2.10;;;9.10;99.90;;;;;;5068736;28;20056;-71
2022/04/07 00:32:49;;;;;;;11.20;2.00;;;9.10;99.90;;;;;;5067109;28;20063;-71
2022/04/07 00:35:16;;;;;;;13.40;2.58;;;9.00;99.90;;;;;;5068757;28;20079;-71
2022/04/07 00:37:43;;;;;;;14.68;2.85;;;9.00;99.90;;;;;;5067563;28;20248;-71
2022/04/07 00:40:10;;;;;;;12.13;2.13;;;9.00;99.90;;;;;;5069387;28;20401;-72
2022/04/07 00:42:47;;;;;;;15.77;2.50;;;9.00;99.90;;;;;;5067281;28;20101;-70
2022/04/07 00:45:14;;;;;;;14.32;2.40;;;9.10;99.90;;;;;;5068090;28;20449;-71
2022/04/07 00:47:41;;;;;;;17.73;2.90;;;9.00;99.90;;;;;;5067781;28;20041;-71
2022/04/07 00:50:07;;;;;;;20.33;2.97;;;9.00;99.90;;;;;;5051614;28;20037;-71
2022/04/07 00:52:34;;;;;;;13.50;2.45;;;9.00;99.90;;;;;;5067756;28;20045;-71
2022/04/07 00:55:01;;;;;;;16.60;2.88;;;9.00;99.90;;;;;;5065751;28;20060;-70
2022/04/07 00:57:27;;;;;;;18.45;3.03;;;9.00;99.90;;;;;;5069635;28;20353;-70
2022/04/07 00:59:54;;;;;;;18.17;3.03;;;9.00;99.90;;;;;;5069938;28;20056;-70
2022/04/07 01:02:20;;;;;;;19.17;2.97;;;9.00;99.90;;;;;;5041266;28;20041;-70
2022/04/07 01:04:46;;;;;;;16.15;2.53;;;9.00;99.90;;;;;;5065024;28;20059;-70
2022/04/07 01:07:13;;;;;;;20.65;3.17;;;8.90;99.90;;;;;;5068191;28;20044;-70
2022/04/07 01:09:38;;;;;;;19.80;2.80;;;8.90;99.90;;;;;;5067583;28;20053;-70
2022/04/07 01:12:05;;;;;;;19.45;3.10;;;8.90;99.90;;;;;;5050075;28;20052;-70
2022/04/07 01:14:30;;;;;;;19.63;2.97;;;8.90;99.90;;;;;;5061196;28;20045;-71
2022/04/07 01:16:56;;;;;;;20.52;3.08;;;9.00;99.90;;;;;;5068309;28;20033;-71
2022/04/07 01:19:21;;;;;;;20.83;3.25;;;8.90;99.90;;;;;;5069354;28;20051;-70
2022/04/07 01:21:47;;;;;;;21.98;2.90;;;8.90;99.90;;;;;;5058010;28;20048;-71
2022/04/07 01:24:13;;;;;;;16.60;2.47;;;8.90;99.90;;;;;;5066221;28;20044;-71
2022/04/07 01:26:44;;;;;;;15.93;3.08;;;8.80;99.90;;;;;;5067588;28;20558;-70
2022/04/07 01:29:14;;;;;;;18.27;2.70;;;8.80;99.90;;;;;;5067967;28;20074;-70
2022/04/07 01:31:40;;;;;;;12.57;2.65;;;8.80;99.90;;;;;;5068828;28;20040;-71
2022/04/07 01:34:17;;;;;;;15.32;2.13;;;8.70;99.90;;;;;;5067222;28;20052;-71
2022/04/07 01:36:47;;;;;;;18.30;2.78;;;8.70;99.90;;;;;;5050117;28;20466;-71
2022/04/07 01:39:18;;;;;;;19.43;3.53;;;8.60;99.90;;;;;;5031264;28;20045;-70
2022/04/07 01:41:44;;;;;;;25.10;4.32;;;8.60;99.90;;;;;;5040748;28;20294;-71
2022/04/07 01:44:11;;;;;;;23.67;4.15;;;8.60;99.90;;;;;;5067000;28;20047;-70
2022/04/07 01:46:38;;;;;;;20.70;3.70;;;8.60;99.90;;;;;;5069073;28;20092;-70
2022/04/07 01:49:05;;;;;;;22.02;4.20;;;8.60;99.90;;;;;;5051476;28;20052;-70
2022/04/07 01:51:31;;;;;;;21.92;3.60;;;8.60;99.90;;;;;;5065617;28;20055;-71
2022/04/07 01:53:57;;;;;;;23.00;3.53;;;8.60;99.90;;;;;;5067594;28;20051;-71
2022/04/07 01:56:24;;;;;;;25.98;3.70;;;8.70;99.90;;;;;;5050572;28;20051;-71
2022/04/07 01:58:50;;;;;;;28.25;4.47;;;8.70;99.90;;;;;;5067258;28;20079;-71
2022/04/07 02:01:16;;;;;;;27.10;3.97;;;8.60;99.90;;;;;;5067638;28;20044;-70
2022/04/07 02:03:45;;;;;;;20.80;3.42;;;8.60;99.90;;;;;;5063331;28;20051;-70
2022/04/07 02:06:18;;;;;;;24.38;4.57;;;9.10;99.90;;;;;;5067062;28;20037;-70
2022/04/07 02:08:44;;;;;;;20.92;3.22;;;8.60;99.90;;;;;;5057715;28;20127;-70
2022/04/07 02:11:10;;;;;;;24.35;3.60;;;8.60;99.90;;;;;;5056513;28;20115;-77
2022/04/07 02:13:40;;;;;;;20.05;3.25;;;8.60;99.90;;;;;;5049960;28;20036;-79
2022/04/07 02:16:08;;;;;;;23.27;3.35;;;8.60;99.90;;;;;;5068426;28;20532;-76
2022/04/07 02:18:34;;;;;;;30.25;4.25;;;8.60;99.90;;;;;;5067685;28;20469;-76
2022/04/07 02:21:00;;;;;;;24.75;3.63;;;8.60;99.90;;;;;;5068049;28;20044;-76
2022/04/07 02:23:27;;;;;;;25.08;3.97;;;8.60;99.90;;;;;;5066388;28;20508;-77
2022/04/07 02:25:53;;;;;;;19.48;3.55;;;8.60;99.90;;;;;;5049333;28;20041;-76
2022/04/07 02:28:18;;;;;;;15.35;3.05;;;8.60;99.90;;;;;;5066134;28;20255;-78
2022/04/07 02:30:48;;;;;;;24.45;4.00;;;8.60;99.90;;;;;;5066573;28;20118;-78
2022/04/07 02:33:15;;;;;;;25.98;3.70;;;8.60;99.90;;;;;;5065347;28;20048;-77
2022/04/07 02:35:40;;;;;;;21.55;3.20;;;8.60;99.90;;;;;;5065848;28;20040;-78
2022/04/07 02:38:06;;;;;;;26.63;3.75;;;8.60;99.90;;;;;;5050269;28;20044;-78
2022/04/07 02:40:32;;;;;;;27.35;3.50;;;8.60;99.90;;;;;;5045355;28;20123;-79
2022/04/07 02:42:58;;;;;;;23.52;3.83;;;8.70;99.90;;;;;;5067206;28;20127;-78
2022/04/07 02:45:24;;;;;;;22.15;3.38;;;8.70;99.90;;;;;;5066235;28;20041;-78
2022/04/07 02:47:49;;;;;;;23.52;3.72;;;8.70;99.90;;;;;;5049484;28;20561;-78
2022/04/07 02:50:16;;;;;;;27.42;4.25;;;8.70;99.90;;;;;;5066066;28;20052;-79
2022/04/07 02:52:43;;;;;;;28.70;4.15;;;8.70;99.90;;;;;;5064876;28;20067;-79
2022/04/07 02:55:09;;;;;;;28.10;5.47;;;8.70;99.90;;;;;;5057350;28;20125;-78
2022/04/07 02:57:35;;;;;;;20.58;3.55;;;8.70;99.90;;;;;;5067291;28;20638;-77
2022/04/07 03:00:05;;;;;;;19.17;3.63;;;8.70;99.90;;;;;;5066521;28;20048;-77
2022/04/07 03:02:31;;;;;;;24.30;4.00;;;8.70;99.90;;;;;;5066687;28;20059;-79
2022/04/07 03:04:56;;;;;;;19.38;3.88;;;8.70;99.90;;;;;;5048994;28;20240;-78
2022/04/07 03:07:22;;;;;;;21.98;3.58;;;8.70;99.90;;;;;;5067708;28;20071;-78
2022/04/07 03:09:48;;;;;;;22.65;3.47;;;8.70;99.90;;;;;;5062523;28;20072;-78
2022/04/07 03:12:14;;;;;;;19.58;4.30;;;8.70;99.90;;;;;;5060851;28;20052;-78
2022/04/07 03:14:40;;;;;;;18.15;3.17;;;8.70;99.90;;;;;;5047994;28;20121;-70
2022/04/07 03:17:06;;;;;;;20.10;3.92;;;8.70;99.90;;;;;;5065720;28;20634;-70
2022/04/07 03:19:32;;;;;;;23.10;4.07;;;8.80;99.90;;;;;;5064982;28;20056;-70
2022/04/07 03:21:59;;;;;;;21.10;4.03;;;8.80;99.90;;;;;;5045244;28;20056;-70
2022/04/07 03:24:25;;;;;;;21.92;4.13;;;8.80;99.90;;;;;;5066527;28;20044;-70
2022/04/07 03:26:51;;;;;;;21.48;4.50;;;8.80;99.90;;;;;;5066360;28;20044;-70
2022/04/07 03:29:19;;;;;;;19.83;4.20;;;8.90;99.90;;;;;;5066340;28;20045;-70
2022/04/07 03:31:45;;;;;;;18.05;3.60;;;8.80;99.90;;;;;;5065461;28;20052;-70
2022/04/07 03:34:11;;;;;;;20.90;3.42;;;8.80;99.90;;;;;;5065847;28;20044;-71
2022/04/07 03:36:37;;;;;;;21.63;3.70;;;8.80;99.90;;;;;;5045633;28;20045;-70
2022/04/07 03:39:03;;;;;;;16.48;4.00;;;8.80;99.90;;;;;;5064577;28;20091;-76
2022/04/07 03:41:29;;;;;;;25.10;3.97;;;8.80;99.90;;;;;;5058021;28;20044;-76
2022/04/07 03:43:58;;;;;;;23.50;4.10;;;8.80;99.90;;;;;;5065387;28;20098;-77
2022/04/07 03:46:24;;;;;;;18.08;3.63;;;8.80;99.90;;;;;;5070330;28;20812;-78
2022/04/07 03:48:51;;;;;;;27.08;4.40;;;8.80;99.90;;;;;;5046358;28;20120;-77
2022/04/07 03:51:19;;;;;;;29.65;4.45;;;8.80;99.90;;;;;;5063110;28;20106;-77
2022/04/07 03:53:45;;;;;;;19.13;3.00;;;9.00;99.90;;;;;;5069076;28;20044;-79
2022/04/07 03:56:11;;;;;;;21.55;3.72;;;8.80;99.90;;;;;;5066620;28;20103;-79
2022/04/07 03:58:38;;;;;;;23.90;4.60;;;8.90;99.90;;;;;;5052767;28;20149;-79
2022/04/07 04:01:04;;;;;;;18.88;3.20;;;8.90;99.90;;;;;;5050732;28;20497;-78
2022/04/07 04:03:30;;;;;;;22.38;4.05;;;8.90;99.90;;;;;;5069262;28;20049;-76
2022/04/07 04:05:56;;;;;;;18.50;3.08;;;8.90;99.90;;;;;;5051865;28;20037;-78
2022/04/07 04:08:22;;;;;;;22.55;3.42;;;8.90;99.90;;;;;;5070865;28;20052;-77
2022/04/07 04:10:47;;;;;;;26.05;4.03;;;8.90;99.90;;;;;;5067619;28;20048;-77
2022/04/07 04:13:13;;;;;;;22.00;3.92;;;8.90;99.90;;;;;;5068533;28;20071;-79
2022/04/07 04:15:39;;;;;;;21.33;3.15;;;8.80;99.90;;;;;;5064148;28;20120;-78
2022/04/07 04:18:04;;;;;;;25.85;4.60;;;8.90;99.90;;;;;;5066926;28;20558;-77
2022/04/07 04:20:30;;;;;;;23.63;3.58;;;8.80;99.90;;;;;;5069989;28;20044;-78
2022/04/07 04:22:56;;;;;;;27.40;4.43;;;8.80;99.90;;;;;;5070102;28;20493;-79
2022/04/07 04:25:22;;;;;;;29.60;4.20;;;8.70;99.90;;;;;;5046222;28;20420;-77
2022/04/07 04:27:49;;;;;;;31.67;3.83;;;8.70;99.90;;;;;;5069578;28;20041;-77
2022/04/07 04:30:15;;;;;;;37.50;5.03;;;8.70;99.90;;;;;;5070692;28;20190;-77
2022/04/07 04:32:43;;;;;;;37.65;4.85;;;8.60;99.90;;;;;;5068976;28;20127;-77
2022/04/07 04:35:10;;;;;;;27.15;4.65;;;8.70;99.90;;;;;;5070191;28;20091;-77
2022/04/07 04:37:36;;;;;;;29.17;4.05;;;8.70;99.90;;;;;;5068791;28;20454;-74
2022/04/07 04:40:03;;;;;;;33.88;4.47;;;8.60;99.90;;;;;;5062470;28;20417;-77
2022/04/07 04:42:29;;;;;;;34.30;5.22;;;8.50;99.90;;;;;;5066904;28;20041;-76
2022/04/07 04:44:54;;;;;;;33.03;4.53;;;8.60;99.90;;;;;;5070139;28;20036;-77
2022/04/07 04:47:20;;;;;;;35.92;5.35;;;8.60;99.90;;;;;;5064836;28;20075;-77
2022/04/07 04:49:46;;;;;;;28.75;4.90;;;8.50;99.90;;;;;;5060156;28;20059;-77
2022/04/07 04:52:12;;;;;;;34.90;5.43;;;8.50;99.90;;;;;;5051282;28;20509;-76
2022/04/07 04:54:40;;;;;;;40.95;5.80;;;8.50;99.90;;;;;;5050099;28;20049;-78
2022/04/07 04:57:09;;;;;;;34.85;4.97;;;8.50;99.90;;;;;;5051490;28;20132;-78
2022/04/07 04:59:34;;;;;;;36.00;4.93;;;8.50;99.90;;;;;;5052242;28;20072;-70
2022/04/07 05:02:01;;;;;;;33.05;4.93;;;8.50;99.90;;;;;;5061834;28;20045;-70
2022/04/07 05:04:27;;;;;;;33.97;5.43;;;8.70;99.90;;;;;;5035907;28;20040;-72
2022/04/07 05:06:52;;;;;;;33.83;5.50;;;8.40;99.90;;;;;;5066703;28;20401;-70
2022/04/07 05:09:18;;;;;;;28.58;4.88;;;8.40;99.90;;;;;;5057228;28;20048;-71
2022/04/07 05:11:44;;;;;;;27.95;4.72;;;8.70;99.90;;;;;;5061164;28;20098;-71
2022/04/07 05:14:09;;;;;;;33.53;5.15;;;8.40;99.90;;;;;;5081467;28;20036;-71
2022/04/07 05:16:35;;;;;;;12.63;2.72;;;8.40;99.90;;;;;;5056369;28;20121;-71
2022/04/07 05:19:01;;;;;;;14.07;2.40;;;8.30;99.90;;;;;;5077534;28;20693;-71
2022/04/07 05:21:26;;;;;;;13.07;1.90;;;8.20;99.90;;;;;;5056353;28;20721;-72
2022/04/07 05:23:52;;;;;;;11.32;1.58;;;8.10;99.90;;;;;;5079674;28;20539;-71
2022/04/07 05:26:18;;;;;;;14.98;1.98;;;7.90;99.90;;;;;;5064866;28;20134;-71
2022/04/07 05:28:44;;;;;;;11.80;1.40;;;7.70;99.90;;;;;;5077054;28;20132;-71
2022/04/07 05:31:11;;;;;;;12.07;1.67;;;7.40;99.90;;;;;;5073157;28;20074;-70
2022/04/07 05:33:37;;;;;;;13.73;2.40;;;7.30;99.90;;;;;;5075389;28;20887;-70
2022/04/07 05:36:02;;;;;;;12.00;1.90;;;7.20;99.90;;;;;;5064539;28;20127;-69
2022/04/07 05:38:28;;;;;;;12.75;2.55;;;7.10;99.90;;;;;;5072022;28;20118;-71
2022/04/07 05:40:54;;;;;;;14.02;2.15;;;7.00;99.90;;;;;;5063052;28;20279;-71
2022/04/07 05:43:20;;;;;;;15.52;2.25;;;6.90;99.90;;;;;;5069920;28;20120;-70
2022/04/07 05:45:46;;;;;;;10.85;1.92;;;6.90;99.90;;;;;;5069993;28;20032;-71
2022/04/07 05:48:12;;;;;;;7.82;1.30;;;6.80;99.90;;;;;;5079559;28;20048;-71
2022/04/07 05:50:39;;;;;;;5.22;1.00;;;6.70;99.90;;;;;;5081870;28;20420;-70
2022/04/07 05:53:06;;;;;;;7.00;1.10;;;6.70;99.90;;;;;;5067189;28;20064;-71
2022/04/07 05:55:32;;;;;;;10.68;1.45;;;6.60;99.90;;;;;;5058977;28;20131;-71
2022/04/07 05:58:04;;;;;;;8.00;1.23;;;6.70;99.90;;;;;;5056065;28;20055;-71
2022/04/07 06:00:31;;;;;;;6.35;1.23;;;6.40;99.90;;;;;;5038917;28;20078;-71
2022/04/07 06:02:57;;;;;;;9.18;1.30;;;6.30;99.90;;;;;;5066358;28;20048;-70
2022/04/07 06:05:22;;;;;;;8.48;1.33;;;6.30;99.90;;;;;;5055063;28;20060;-70
2022/04/07 06:07:48;;;;;;;10.10;1.80;;;6.20;99.90;;;;;;5066712;28;20513;-70
2022/04/07 06:10:14;;;;;;;10.40;1.40;;;6.10;99.90;;;;;;5062057;28;20156;-70
2022/04/07 06:12:42;;;;;;;10.32;1.20;;;6.10;99.90;;;;;;5068542;28;20408;-70
2022/04/07 06:15:11;;;;;;;9.73;1.30;;;6.10;99.90;;;;;;5068367;28;20048;-69
2022/04/07 06:17:39;;;;;;;10.55;1.15;;;6.00;99.90;;;;;;5065682;28;20039;-71
2022/04/07 06:20:07;;;;;;;7.60;1.17;;;5.90;99.90;;;;;;5068344;28;20118;-70
2022/04/07 06:22:34;;;;;;;6.65;1.35;;;5.90;99.90;;;;;;5045951;28;20044;-71
2022/04/07 06:25:00;;;;;;;8.32;1.20;;;5.80;99.90;;;;;;5060844;28;20040;-70
2022/04/07 06:27:36;;;;;;;9.93;1.00;;;5.80;99.90;;;;;;5068171;28;20048;-71
2022/04/07 06:30:03;;;;;;;8.82;1.35;;;5.70;99.90;;;;;;5068280;28;20068;-71
2022/04/07 06:32:29;;;;;;;7.72;1.35;;;5.70;99.90;;;;;;5064971;28;20162;-71
2022/04/07 06:34:55;;;;;;;5.40;1.02;;;5.60;99.90;;;;;;5059091;28;20135;-71
2022/04/07 06:37:20;;;;;;;5.20;0.95;;;5.60;99.90;;;;;;5078586;28;20028;-71
2022/04/07 06:39:46;;;;;;;6.43;0.90;;;5.60;99.90;;;;;;5074991;28;20032;-72
2022/04/07 06:42:12;;;;;;;6.20;1.05;;;5.60;99.90;;;;;;5062433;28;20443;-71
2022/04/07 06:44:40;;;;;;;7.85;0.93;;;5.60;99.90;;;;;;5077461;28;20079;-72
2022/04/07 06:47:06;;;;;;;7.38;1.00;;;5.60;99.90;;;;;;5075761;28;20438;-71
2022/04/07 06:49:32;;;;;;;6.85;1.23;;;5.60;99.90;;;;;;5076511;28;20523;-71
2022/04/07 06:51:58;;;;;;;8.57;1.25;;;5.60;99.90;;;;;;5077925;28;20400;-71
2022/04/07 06:54:23;;;;;;;8.75;1.02;;;5.70;99.90;;;;;;5073522;28;20117;-71
2022/04/07 06:56:49;;;;;;;5.63;0.80;;;5.60;99.90;;;;;;5068093;28;20045;-72
2022/04/07 06:59:14;;;;;;;8.85;1.02;;;5.70;99.90;;;;;;5054156;28;20072;-72
2022/04/07 07:01:41;;;;;;;5.47;0.90;;;5.70;99.90;;;;;;5050462;28;20040;-71
2022/04/07 07:04:07;;;;;;;5.05;1.23;;;5.70;99.90;;;;;;5067981;28;20750;-72
2022/04/07 07:06:32;;;;;;;9.80;1.20;;;5.70;99.90;;;;;;5072961;28;20096;-71
2022/04/07 07:08:58;;;;;;;9.73;1.15;;;5.70;99.90;;;;;;5068373;28;20068;-71
2022/04/07 07:11:24;;;;;;;4.45;0.80;;;5.70;99.90;;;;;;5071619;28;20050;-71
2022/04/07 07:13:49;;;;;;;2.95;0.77;;;5.80;99.90;;;;;;5073138;28;20033;-71
2022/04/07 07:16:15;;;;;;;6.80;1.10;;;5.80;99.90;;;;;;5064882;28;20484;-70
2022/04/07 07:18:42;;;;;;;4.93;0.80;;;6.00;99.90;;;;;;5069735;28;20375;-68
2022/04/07 07:21:08;;;;;;;6.80;1.00;;;5.80;99.90;;;;;;5079767;28;20046;-71
2022/04/07 07:23:34;;;;;;;3.55;0.70;;;5.90;99.90;;;;;;5054566;28;20043;-71
2022/04/07 07:26:00;;;;;;;4.82;0.80;;;5.90;99.90;;;;;;5072686;28;20044;-70
2022/04/07 07:28:25;;;;;;;5.97;1.20;;;5.90;99.90;;;;;;5074256;28;20044;-71
2022/04/07 07:30:51;;;;;;;5.43;0.93;;;5.90;99.90;;;;;;5058522;28;20055;-70
2022/04/07 07:33:17;;;;;;;6.65;1.20;;;5.90;99.90;;;;;;5059997;28;20052;-70
2022/04/07 07:35:45;;;;;;;8.18;1.20;;;5.90;99.90;;;;;;5058657;28;20056;-71
2022/04/07 07:38:11;;;;;;;4.97;1.20;;;5.90;99.90;;;;;;5061340;28;20044;-70
2022/04/07 07:40:40;;;;;;;5.80;0.98;;;6.00;99.90;;;;;;5070263;28;20047;-71
2022/04/07 07:43:06;;;;;;;5.13;0.95;;;6.00;99.90;;;;;;5073028;28;20580;-71
2022/04/07 07:45:33;;;;;;;4.75;1.08;;;6.00;99.90;;;;;;5071812;28;20044;-70
2022/04/07 07:47:59;;;;;;;4.80;0.80;;;6.00;99.90;;;;;;5064927;28;20099;-70
2022/04/07 07:50:25;;;;;;;4.85;1.15;;;6.10;99.90;;;;;;5045133;28;20036;-70
2022/04/07 07:52:51;;;;;;;7.05;1.20;;;6.10;99.90;;;;;;5059007;28;20036;-70
2022/04/07 07:55:17;;;;;;;7.18;1.27;;;6.10;99.90;;;;;;5072830;28;20040;-70
2022/04/07 07:57:43;;;;;;;6.00;1.17;;;6.20;99.90;;;;;;5055072;28;20076;-70
2022/04/07 08:00:10;;;;;;;8.07;1.50;;;6.40;99.90;;;;;;5073682;28;20128;-70
2022/04/07 08:02:40;;;;;;;6.85;1.20;;;6.90;99.90;;;;;;5070685;28;20131;-70
2022/04/07 08:05:07;;;;;;;8.60;1.85;;;7.30;99.90;;;;;;5034244;28;20048;-70
2022/04/07 08:07:40;;;;;;;4.40;0.90;;;7.60;99.90;;;;;;5070713;28;20385;-70
2022/04/07 08:10:06;;;;;;;7.07;1.30;;;7.70;99.90;;;;;;5055419;28;20052;-71
2022/04/07 08:12:32;;;;;;;5.65;1.15;;;7.90;99.90;;;;;;5078097;28;20532;-76
2022/04/07 08:14:57;;;;;;;4.43;1.20;;;8.20;99.90;;;;;;5068765;28;20350;-70
2022/04/07 08:17:23;;;;;;;4.85;1.05;;;8.50;99.90;;;;;;5067436;28;20082;-70
2022/04/07 08:19:49;;;;;;;8.60;1.30;;;8.70;99.90;;;;;;5078218;28;20083;-71
2022/04/07 08:22:15;;;;;;;7.47;1.20;;;9.70;99.90;;;;;;5079010;28;20047;-70
2022/04/07 08:24:40;;;;;;;6.63;1.30;;;9.30;99.90;;;;;;5075140;28;20048;-71
2022/04/07 08:27:06;;;;;;;4.15;1.00;;;9.40;99.90;;;;;;5074799;28;20135;-71
2022/04/07 08:29:33;;;;;;;6.80;1.10;;;9.60;99.90;;;;;;5059296;28;20044;-70
2022/04/07 08:31:59;;;;;;;12.80;1.25;;;9.70;99.90;;;;;;5080230;28;20462;-71
2022/04/07 08:34:25;;;;;;;9.48;1.48;;;9.90;99.90;;;;;;5063502;28;20048;-70
2022/04/07 08:36:51;;;;;;;9.73;1.67;;;10.10;99.90;;;;;;5081145;28;20351;-70
2022/04/07 08:39:17;;;;;;;5.82;1.10;;;10.20;99.90;;;;;;5084764;28;20036;-71
2022/04/07 08:41:45;;;;;;;7.07;1.38;;;10.20;99.90;;;;;;5079398;28;20044;-71
2022/04/07 08:44:12;;;;;;;5.28;1.20;;;10.40;99.90;;;;;;5079836;28;20224;-71
2022/04/07 08:46:40;;;;;;;8.95;1.00;;;10.70;99.90;;;;;;5077325;28;20054;-70
2022/04/07 08:49:07;;;;;;;6.47;1.20;;;10.90;99.90;;;;;;5075602;28;20032;-72
2022/04/07 08:51:33;;;;;;;5.97;1.08;;;11.10;99.90;;;;;;5080719;28;20408;-70
2022/04/07 08:53:59;;;;;;;9.38;1.40;;;11.50;99.90;;;;;;5081365;28;20048;-70
2022/04/07 08:56:25;;;;;;;10.52;1.33;;;11.10;99.90;;;;;;5069241;28;20052;-70
2022/04/07 08:58:53;;;;;;;6.82;1.23;;;11.10;99.90;;;;;;5076882;28;20043;-71
2022/04/07 09:01:19;;;;;;;7.35;1.10;;;11.10;99.90;;;;;;5078817;28;20045;-70
2022/04/07 09:03:45;;;;;;;11.35;1.50;;;11.00;99.90;;;;;;5075442;28;20039;-71
2022/04/07 09:06:15;;;;;;;8.50;1.15;;;10.90;99.90;;;;;;5066427;28;20411;-70
2022/04/07 09:08:41;;;;;;;11.10;1.45;;;10.90;99.90;;;;;;5062530;28;20052;-71
2022/04/07 09:11:10;;;;;;;7.35;1.30;;;10.80;99.90;;;;;;5075995;28;20044;-70
2022/04/07 09:13:41;;;;;;;8.43;1.90;;;10.70;99.90;;;;;;5083488;28;20039;-70
2022/04/07 09:16:11;;;;;;;7.30;1.70;;;10.60;99.90;;;;;;5063433;28;20045;-71
2022/04/07 09:18:37;;;;;;;9.73;1.67;;;10.60;99.90;;;;;;5061937;28;20032;-70
2022/04/07 09:21:05;;;;;;;12.07;1.33;;;10.70;99.90;;;;;;5084063;28;20507;-71
2022/04/07 09:23:41;;;;;;;15.50;1.60;;;10.80;99.90;;;;;;5083735;28;20111;-70
2022/04/07 09:26:11;;;;;;;13.98;1.75;;;10.90;99.90;;;;;;5082286;28;20090;-72
2022/04/07 09:28:40;;;;;;;10.45;1.35;;;11.10;99.90;;;;;;5079142;28;20520;-70
2022/04/07 09:31:10;;;;;;;8.52;1.27;;;11.10;99.90;;;;;;5084816;28;20461;-70
2022/04/07 09:33:36;;;;;;;13.65;2.35;;;10.90;99.90;;;;;;5079760;28;20115;-71
2022/04/07 09:36:12;;;;;;;9.02;1.60;;;10.70;99.90;;;;;;5084367;28;20472;-71
2022/04/07 09:38:38;;;;;;;11.77;2.08;;;10.60;99.90;;;;;;5077347;28;20048;-71
2022/04/07 09:41:05;;;;;;;13.30;2.28;;;10.50;99.90;;;;;;5079879;28;20451;-70
2022/04/07 09:43:43;;;;;;;16.25;1.92;;;10.40;99.90;;;;;;5084164;28;20036;-71
2022/04/07 09:46:11;;;;;;;15.35;1.55;;;10.30;99.90;;;;;;5065396;28;20090;-70
2022/04/07 09:48:37;;;;;;;9.38;2.17;;;10.20;99.90;;;;;;5081794;28;20036;-71
2022/04/07 09:51:05;;;;;;;12.60;1.70;;;10.40;99.90;;;;;;5079486;28;20036;-71
2022/04/07 09:53:39;;;;;;;10.50;2.05;;;10.40;99.90;;;;;;5047692;28;20094;-71
2022/04/07 09:56:09;;;;;;;12.55;1.80;;;10.20;99.90;;;;;;5081647;28;20082;-71
2022/04/07 09:58:35;;;;;;;14.25;1.90;;;9.90;99.90;;;;;;5082170;28;20405;-72
2022/04/07 10:01:02;;;;;;;17.02;2.05;;;9.50;99.90;;;;;;5080961;28;20054;-70
2022/04/07 10:03:30;;;;;;;16.10;2.20;;;9.20;99.90;;;;;;5084276;28;20048;-71
2022/04/07 10:05:57;;;;;;;13.77;2.03;;;9.10;99.90;;;;;;5064211;28;20174;-71
2022/04/07 10:08:24;;;;;;;13.20;2.05;;;9.30;99.90;;;;;;5062223;28;20044;-70
2022/04/07 10:10:50;;;;;;;10.52;2.10;;;9.50;99.90;;;;;;5076189;28;20056;-70
2022/04/07 10:13:16;;;;;;;13.73;2.42;;;9.80;99.90;;;;;;5078764;28;20527;-71
2022/04/07 10:15:42;;;;;;;17.30;2.20;;;9.90;99.90;;;;;;5075061;28;20115;-70
2022/04/07 10:18:16;;;;;;;14.70;1.73;;;9.80;99.90;;;;;;5068992;28;20326;-71
2022/04/07 10:20:45;;;;;;;8.60;1.52;;;9.50;99.90;;;;;;5074694;28;20048;-70
2022/04/07 10:23:39;;;;;;;7.00;1.27;;;9.20;99.90;;;;;;5061150;28;20060;-72
2022/04/07 10:26:11;;;;;;;12.13;1.58;;;8.90;99.90;;;;;;5065314;28;20043;-73
2022/04/07 10:28:36;;;;;;;11.63;1.77;;;8.70;99.90;;;;;;5035068;28;20058;-71
2022/04/07 10:31:15;;;;;;;11.15;1.88;;;8.70;99.90;;;;;;5069582;28;20048;-70
2022/04/07 10:33:43;;;;;;;16.33;2.30;;;8.70;99.90;;;;;;5070260;28;20393;-71
2022/04/07 10:36:19;;;;;;;13.60;1.90;;;8.80;99.90;;;;;;5066545;28;20127;-70
2022/04/07 10:38:48;;;;;;;14.35;2.42;;;8.80;99.90;;;;;;5059763;28;20040;-70
2022/04/07 10:41:35;;;;;;;13.55;2.20;;;8.90;99.90;;;;;;5064724;28;20451;-70
2022/04/07 10:44:21;;;;;;;13.18;1.77;;;8.90;99.90;;;;;;5047553;28;20059;-71
2022/04/07 10:46:47;;;;;;;12.25;1.73;;;8.70;99.90;;;;;;5065172;28;20095;-72
2022/04/07 10:49:24;;;;;;;16.48;2.15;;;8.60;99.90;;;;;;5067778;28;20107;-70
2022/04/07 10:51:54;;;;;;;15.77;2.10;;;8.50;99.90;;;;;;5065177;28;20127;-70
2022/04/07 10:54:24;;;;;;;18.58;2.13;;;8.50;99.90;;;;;;5063388;28;20132;-70
2022/04/07 10:56:56;;;;;;;17.75;3.05;;;8.50;99.90;;;;;;5054898;28;20506;-70
2022/04/07 10:59:34;;;;;;;15.00;1.70;;;8.50;99.90;;;;;;5049698;28;20245;-70
2022/04/07 11:02:07;;;;;;;14.05;2.17;;;8.60;99.90;;;;;;5052009;28;20131;-70
2022/04/07 11:04:39;;;;;;;16.10;3.70;;;8.70;99.90;;;;;;5057433;28;20040;-70
2022/04/07 11:07:08;;;;;;;14.18;2.47;;;8.80;99.90;;;;;;5057592;28;20094;-72
2022/04/07 11:10:00;;;;;;;22.73;2.65;;;8.70;99.90;;;;;;5053916;28;20071;-71
2022/04/07 11:13:00;;;;;;;13.70;2.53;;;8.80;99.90;;;;;;5061136;28;20493;-71
2022/04/07 11:15:30;;;;;;;22.00;2.90;;;8.90;99.90;;;;;;5052673;28;20045;-72
2022/04/07 11:18:02;;;;;;;18.13;2.67;;;9.00;99.90;;;;;;5044285;28;20036;-72
2022/04/07 11:20:28;;;;;;;18.10;3.00;;;9.20;99.90;;;;;;5046223;28;20056;-71
2022/04/07 11:23:08;;;;;;;20.08;2.47;;;9.40;99.90;;;;;;5071952;28;20760;-70
2022/04/07 11:25:37;;;;;;;11.82;2.45;;;9.50;99.90;;;;;;5083701;28;20512;-71
2022/04/07 11:28:14;;;;;;;22.13;3.35;;;9.50;99.90;;;;;;5081281;28;20115;-71
2022/04/07 11:30:48;;;;;;;17.33;3.15;;;9.50;99.90;;;;;;5080098;28;20051;-72
2022/04/07 11:36:00;;;;;;;17.63;3.00;;;9.30;99.90;;;;;;5074239;28;20045;-71
2022/04/07 11:38:34;;;;;;;16.70;2.45;;;9.30;99.90;;;;;;5079708;28;20105;-72
2022/04/07 11:41:04;;;;;;;17.63;2.40;;;9.30;99.90;;;;;;5077266;28;20121;-71
2022/04/07 11:43:30;;;;;;;14.40;2.10;;;9.40;99.90;;;;;;5080062;28;20068;-72
2022/04/07 11:45:57;;;;;;;14.65;2.53;;;9.50;99.90;;;;;;5077578;28;20040;-71
2022/04/07 11:48:23;;;;;;;13.68;2.78;;;9.60;99.90;;;;;;5063453;28;20040;-71
2022/04/07 11:50:50;;;;;;;15.38;2.38;;;9.60;99.90;;;;;;5080939;28;20046;-70
2022/04/07 11:53:16;;;;;;;12.07;1.90;;;9.70;99.90;;;;;;5064370;28;20046;-72
2022/04/07 11:55:42;;;;;;;14.10;1.80;;;9.70;99.90;;;;;;5080103;28;20407;-70
2022/04/07 11:58:10;;;;;;;10.82;1.88;;;9.80;99.90;;;;;;5073732;28;20052;-70
2022/04/07 12:00:36;;;;;;;11.00;2.33;;;10.00;99.90;;;;;;5077519;28;20040;-69
2022/04/07 12:03:03;;;;;;;13.90;2.10;;;10.10;99.90;;;;;;5079270;28;20112;-70
2022/04/07 12:05:32;;;;;;;10.15;1.95;;;10.30;99.90;;;;;;5060374;28;20044;-70
2022/04/07 12:08:12;;;;;;;14.35;2.50;;;10.40;99.90;;;;;;5081528;28;20048;-73
2022/04/07 12:10:39;;;;;;;11.45;2.05;;;10.60;99.90;;;;;;5079667;28;20426;-73
2022/04/07 12:13:06;;;;;;;13.60;2.20;;;10.60;99.90;;;;;;5082636;28;20096;-72
2022/04/07 12:15:34;;;;;;;14.00;2.47;;;10.60;99.90;;;;;;5064310;28;20040;-72
2022/04/07 12:18:04;;;;;;;18.60;2.40;;;10.60;99.90;;;;;;5081316;28;20041;-72
2022/04/07 12:20:30;;;;;;;13.68;2.20;;;10.40;99.90;;;;;;5081240;28;20044;-72
2022/04/07 12:23:08;;;;;;;15.73;2.10;;;10.30;99.90;;;;;;5080708;28;20127;-71
2022/04/07 12:25:38;;;;;;;18.60;2.35;;;9.90;99.90;;;;;;5063948;28;20048;-71
2022/04/07 12:28:18;;;;;;;6.13;1.88;;;9.40;99.90;;;;;;5068580;28;20143;-71
2022/04/07 12:30:52;;;;;;;5.85;0.80;;;8.90;99.90;;;;;;5067509;28;20037;-70
2022/04/07 12:33:44;;;;;;;5.90;0.93;;;8.30;99.90;;;;;;5067742;28;20566;-71
2022/04/07 12:36:13;;;;;;;6.80;1.42;;;8.00;99.90;;;;;;5062762;28;20037;-71
2022/04/07 12:38:40;;;;;;;11.75;1.67;;;8.20;99.90;;;;;;5069821;28;20076;-71
2022/04/07 12:41:15;;;;;;;11.02;2.03;;;8.50;99.90;;;;;;5049037;28;20062;-71
2022/04/07 12:43:45;;;;;;;11.60;1.88;;;8.80;99.90;;;;;;5055009;28;20116;-71
2022/04/07 12:46:11;;;;;;;12.50;2.28;;;9.10;99.90;;;;;;5066171;28;20051;-71
2022/04/07 12:48:37;;;;;;;10.75;2.28;;;9.30;99.90;;;;;;5080464;28;20044;-71
2022/04/07 12:51:21;;;;;;;13.88;2.10;;;9.40;99.90;;;;;;5079742;28;20074;-71
2022/04/07 12:53:47;;;;;;;13.10;1.98;;;9.40;99.90;;;;;;5081596;28;20055;-71